createdAt,value
2017-08-07T00:00:02.015Z,12.00
2017-08-07T00:02:30.192Z,11.90
2017-08-07T00:04:58.859Z,11.90
2017-08-07T00:07:26.287Z,11.90
2017-08-07T00:09:54.217Z,12.00
2017-08-07T00:12:21.634Z,12.00
2017-08-07T00:14:49.042Z,12.00
2017-08-07T00:17:16.462Z,12.00
2017-08-07T00:19:43.879Z,12.00
2017-08-07T00:22:11.302Z,12.00
2017-08-07T00:24:38.714Z,12.00
2017-08-07T00:27:06.139Z,12.00
2017-08-07T00:29:33.554Z,12.00
2017-08-07T00:32:01.731Z,12.00
2017-08-07T00:34:29.146Z,11.90
2017-08-07T00:36:56.559Z,12.00
2017-08-07T00:39:23.970Z,12.00
2017-08-07T00:41:52.363Z,12.10
2017-08-07T00:44:20.794Z,12.00
2017-08-07T00:46:48.723Z,12.00
2017-08-07T00:49:16.911Z,12.00
2017-08-07T00:51:45.482Z,12.00
2017-08-07T00:54:13.674Z,11.90
2017-08-07T00:56:41.157Z,11.90
2017-08-07T00:59:08.570Z,11.80
2017-08-07T01:01:36.739Z,11.50
2017-08-07T01:04:04.933Z,11.40
2017-08-07T01:06:33.242Z,11.40
2017-08-07T01:09:00.665Z,11.50
2017-08-07T01:11:28.083Z,11.40
2017-08-07T01:13:55.522Z,11.40
2017-08-07T01:16:23.314Z,11.40
2017-08-07T01:18:51.496Z,11.40
2017-08-07T01:21:19.688Z,11.40
2017-08-07T01:23:47.097Z,11.40
2017-08-07T01:26:14.515Z,11.40
2017-08-07T01:28:41.935Z,11.40
2017-08-07T01:31:10.897Z,11.30
2017-08-07T01:33:39.506Z,11.30
2017-08-07T01:36:06.927Z,11.20
2017-08-07T01:38:34.347Z,11.00
2017-08-07T01:41:01.775Z,10.80
2017-08-07T01:43:29.178Z,10.80
2017-08-07T01:45:56.598Z,10.70
2017-08-07T01:48:24.786Z,10.40
2017-08-07T01:50:52.209Z,10.40
2017-08-07T01:53:19.610Z,10.30
2017-08-07T01:55:47.500Z,10.20
2017-08-07T01:58:14.895Z,10.10
2017-08-07T02:00:43.070Z,10.00
2017-08-07T02:03:10.491Z,10.00
2017-08-07T02:05:37.902Z,10.00
2017-08-07T02:08:05.324Z,10.00
2017-08-07T02:10:33.878Z,10.20
2017-08-07T02:13:01.661Z,10.10
2017-08-07T02:15:29.062Z,10.10
2017-08-07T02:17:57.239Z,9.90
2017-08-07T02:20:24.659Z,9.80
2017-08-07T02:22:52.077Z,9.70
2017-08-07T02:25:19.482Z,9.60
2017-08-07T02:27:47.662Z,9.50
2017-08-07T02:30:15.842Z,9.50
2017-08-07T02:32:44.028Z,9.40
2017-08-07T02:35:11.430Z,9.40
2017-08-07T02:37:38.847Z,9.40
2017-08-07T02:40:07.044Z,9.40
2017-08-07T02:42:34.454Z,9.50
2017-08-07T02:45:02.990Z,9.40
2017-08-07T02:47:30.386Z,9.40
2017-08-07T02:49:58.570Z,9.40
2017-08-07T02:52:26.742Z,9.50
2017-08-07T02:54:54.928Z,9.60
2017-08-07T02:57:23.097Z,9.70
2017-08-07T02:59:50.510Z,9.70
2017-08-07T03:02:17.919Z,9.80
2017-08-07T03:04:45.335Z,9.90
2017-08-07T03:07:13.655Z,9.70
2017-08-07T03:09:41.071Z,9.60
2017-08-07T03:12:08.490Z,9.50
2017-08-07T03:14:35.901Z,9.40
2017-08-07T03:17:04.075Z,9.20
2017-08-07T03:19:32.252Z,9.10
2017-08-07T03:22:00.431Z,9.10
2017-08-07T03:24:27.844Z,9.10
2017-08-07T03:26:56.439Z,9.00
2017-08-07T03:29:23.847Z,8.90
2017-08-07T03:31:51.279Z,8.90
2017-08-07T03:34:19.441Z,9.00
2017-08-07T03:36:46.862Z,8.90
2017-08-07T03:39:14.279Z,9.10
2017-08-07T03:41:41.692Z,9.20
2017-08-07T03:44:09.098Z,9.20
2017-08-07T03:46:36.519Z,9.30
2017-08-07T03:49:03.925Z,9.30
2017-08-07T03:51:31.339Z,9.20
2017-08-07T03:53:59.544Z,9.00
2017-08-07T03:56:27.695Z,8.90
2017-08-07T03:58:55.873Z,9.00
2017-08-07T04:01:23.290Z,9.00
2017-08-07T04:03:51.348Z,9.10
2017-08-07T04:06:18.757Z,9.10
2017-08-07T04:08:46.930Z,9.10
2017-08-07T04:11:14.334Z,9.10
2017-08-07T04:13:41.751Z,9.20
2017-08-07T04:16:09.154Z,9.20
2017-08-07T04:18:36.564Z,9.20
2017-08-07T04:21:03.978Z,9.20
2017-08-07T04:23:31.392Z,9.20
2017-08-07T04:25:58.808Z,9.20
2017-08-07T04:28:26.313Z,9.20
2017-08-07T04:30:53.715Z,9.50
2017-08-07T04:33:21.131Z,9.60
2017-08-07T04:35:48.548Z,9.60
2017-08-07T04:38:15.985Z,9.70
2017-08-07T04:40:44.167Z,9.90
2017-08-07T04:43:12.361Z,10.00
2017-08-07T04:45:39.777Z,10.00
2017-08-07T04:48:07.202Z,10.20
2017-08-07T04:50:34.624Z,10.40
2017-08-07T04:53:02.046Z,10.60
2017-08-07T04:55:29.467Z,10.90
2017-08-07T04:57:57.570Z,11.10
2017-08-07T05:00:24.993Z,11.40
2017-08-07T05:02:52.401Z,11.60
2017-08-07T05:05:21.499Z,12.30
2017-08-07T05:07:50.454Z,12.60
2017-08-07T05:10:18.782Z,12.60
2017-08-07T05:12:46.195Z,12.90
2017-08-07T05:15:13.631Z,13.10
2017-08-07T05:17:41.045Z,13.30
2017-08-07T05:20:09.231Z,13.50
2017-08-07T05:22:36.654Z,13.50
2017-08-07T05:25:04.063Z,13.70
2017-08-07T05:27:31.478Z,14.20
2017-08-07T05:29:58.899Z,14.80
2017-08-07T05:32:26.979Z,15.10
2017-08-07T05:34:54.392Z,15.30
2017-08-07T05:37:22.606Z,15.60
2017-08-07T05:39:50.022Z,15.90
2017-08-07T05:42:17.446Z,16.10
2017-08-07T05:44:44.850Z,16.40
2017-08-07T05:47:12.942Z,16.50
2017-08-07T05:49:40.362Z,16.60
2017-08-07T05:52:08.306Z,16.80
2017-08-07T05:54:36.490Z,17.90
2017-08-07T05:57:04.690Z,17.80
2017-08-07T05:59:32.103Z,18.40
2017-08-07T06:02:00.290Z,19.10
2017-08-07T06:04:27.701Z,19.10
2017-08-07T06:06:55.110Z,19.40
2017-08-07T06:09:22.534Z,20.10
2017-08-07T06:11:50.729Z,20.50
2017-08-07T06:14:18.917Z,20.70
2017-08-07T06:16:46.326Z,20.60
2017-08-07T06:19:13.748Z,21.20
2017-08-07T06:21:41.160Z,21.40
2017-08-07T06:24:09.334Z,21.50
2017-08-07T06:26:38.298Z,21.70
2017-08-07T06:29:05.731Z,21.70
2017-08-07T06:31:33.144Z,22.10
2017-08-07T06:34:02.279Z,22.60
2017-08-07T06:36:29.694Z,22.50
2017-08-07T06:38:57.119Z,22.60
2017-08-07T06:41:24.956Z,23.00
2017-08-07T06:43:52.374Z,23.30
2017-08-07T06:46:20.550Z,23.90
2017-08-07T06:48:49.586Z,24.30
2017-08-07T06:51:16.982Z,24.20
2017-08-07T06:53:45.173Z,25.10
2017-08-07T06:56:13.367Z,25.30
2017-08-07T06:58:40.776Z,25.30
2017-08-07T07:01:08.200Z,25.50
2017-08-07T07:03:35.611Z,25.80
2017-08-07T07:06:03.794Z,26.60
2017-08-07T07:08:31.210Z,26.50
2017-08-07T07:10:58.635Z,26.90
2017-08-07T07:13:26.050Z,27.20
2017-08-07T07:15:54.646Z,27.60
2017-08-07T07:18:22.070Z,27.60
2017-08-07T07:21:06.566Z,27.90
2017-08-07T07:23:33.982Z,28.40
2017-08-07T07:26:01.797Z,28.80
2017-08-07T07:28:29.217Z,29.10
2017-08-07T07:30:56.629Z,29.30
2017-08-07T07:33:24.055Z,29.00
2017-08-07T07:35:51.475Z,28.80
2017-08-07T07:38:18.900Z,28.90
2017-08-07T07:40:47.735Z,28.70
2017-08-07T07:43:15.922Z,29.10
2017-08-07T07:45:44.111Z,29.40
2017-08-07T07:48:11.528Z,29.40
2017-08-07T07:50:38.970Z,29.00
2017-08-07T07:53:07.204Z,28.50
2017-08-07T07:55:34.618Z,28.30
2017-08-07T07:58:02.039Z,28.50
2017-08-07T08:00:29.458Z,28.00
2017-08-07T08:02:56.887Z,28.40
2017-08-07T08:05:24.290Z,28.00
2017-08-07T08:07:52.342Z,27.60
2017-08-07T08:10:20.519Z,27.30
2017-08-07T08:12:47.935Z,27.30
2017-08-07T08:15:15.343Z,27.60
2017-08-07T08:17:43.010Z,28.60
2017-08-07T08:20:10.402Z,29.20
2017-08-07T08:22:37.822Z,29.10
2017-08-07T08:25:05.247Z,28.90
2017-08-07T08:27:33.437Z,28.00
2017-08-07T08:30:01.695Z,28.00
2017-08-07T08:32:29.886Z,26.80
2017-08-07T08:34:57.303Z,26.80
2017-08-07T08:37:24.730Z,27.10
2017-08-07T08:39:52.145Z,26.80
2017-08-07T08:42:20.794Z,26.20
2017-08-07T08:44:48.201Z,26.10
2017-08-07T08:47:15.618Z,26.00
2017-08-07T08:49:43.034Z,25.90
2017-08-07T08:52:10.458Z,26.20
2017-08-07T08:54:37.878Z,26.20
2017-08-07T08:57:05.300Z,25.60
2017-08-07T08:59:33.633Z,25.60
2017-08-07T09:02:01.806Z,25.40
2017-08-07T09:04:29.991Z,25.40
2017-08-07T09:06:58.170Z,25.40
2017-08-07T09:09:25.592Z,25.40
2017-08-07T09:11:53.011Z,25.30
2017-08-07T09:14:20.438Z,25.70
2017-08-07T09:16:47.850Z,25.50
2017-08-07T09:19:15.262Z,25.40
2017-08-07T09:39:02.467Z,25.70
2017-08-07T09:41:30.660Z,25.70
2017-08-07T09:43:58.074Z,25.70
2017-08-07T09:46:25.502Z,26.00
2017-08-07T09:48:52.906Z,26.70
2017-08-07T09:51:21.094Z,26.50
2017-08-07T09:53:49.268Z,25.90
2017-08-07T09:56:16.694Z,25.90
2017-08-07T09:58:44.109Z,26.40
2017-08-07T10:01:11.518Z,26.60
2017-08-07T10:03:40.380Z,26.50
2017-08-07T10:06:07.794Z,26.50
2017-08-07T10:08:36.100Z,26.60
2017-08-07T10:11:04.284Z,26.60
2017-08-07T10:13:31.704Z,26.40
2017-08-07T10:15:59.114Z,26.20
2017-08-07T10:18:26.534Z,26.30
2017-08-07T10:29:33.707Z,26.90
2017-08-07T10:32:01.133Z,26.60
2017-08-07T10:34:28.551Z,27.00
2017-08-07T10:36:56.737Z,28.10
2017-08-07T10:39:24.147Z,28.00
2017-08-07T10:41:51.555Z,27.60
2017-08-07T10:44:19.012Z,27.10
2017-08-07T10:46:46.423Z,27.30
2017-08-07T10:49:13.846Z,27.50
2017-08-07T10:51:41.274Z,27.40
2017-08-07T10:54:08.687Z,27.20
2017-08-07T10:56:36.793Z,27.50
2017-08-07T10:59:04.203Z,27.20
2017-08-07T11:01:33.015Z,26.50
2017-08-07T11:04:00.429Z,27.00
2017-08-07T11:06:27.846Z,27.10
2017-08-07T11:08:56.030Z,27.60
2017-08-07T11:11:23.451Z,27.50
2017-08-07T11:13:51.773Z,26.60
2017-08-07T11:16:19.190Z,26.60
2017-08-07T11:18:46.595Z,26.60
2017-08-07T11:21:14.022Z,26.30
2017-08-07T11:23:42.194Z,27.50
2017-08-07T11:26:10.386Z,28.00
2017-08-07T11:28:37.802Z,27.90
2017-08-07T11:31:05.227Z,28.10
2017-08-07T11:33:32.647Z,28.70
2017-08-07T11:36:00.063Z,29.90
2017-08-07T11:38:27.486Z,30.30
2017-08-07T11:40:54.906Z,29.50
2017-08-07T11:43:22.331Z,29.30
2017-08-07T11:45:49.738Z,28.60
2017-08-07T11:48:17.160Z,28.80
2017-08-07T11:50:44.557Z,29.20
2017-08-07T11:53:12.004Z,29.70
2017-08-07T11:55:39.403Z,29.40
2017-08-07T11:58:06.837Z,29.10
2017-08-07T12:00:34.238Z,29.00
2017-08-07T12:03:02.427Z,29.40
2017-08-07T12:05:30.613Z,29.50
2017-08-07T12:07:58.506Z,29.40
2017-08-07T12:10:25.913Z,29.20
2017-08-07T12:12:55.112Z,28.70
2017-08-07T12:15:23.294Z,28.80
2017-08-07T12:17:51.470Z,29.30
2017-08-07T12:20:18.895Z,29.30
2017-08-07T12:22:46.308Z,29.40
2017-08-07T12:25:13.727Z,29.20
2017-08-07T12:27:42.154Z,28.30
2017-08-07T12:30:09.582Z,28.30
2017-08-07T12:32:36.993Z,28.50
2017-08-07T12:35:04.403Z,28.40
2017-08-07T12:37:31.822Z,28.50
2017-08-07T12:39:59.242Z,27.80
2017-08-07T12:42:26.662Z,27.20
2017-08-07T12:44:54.474Z,27.10
2017-08-07T12:47:21.887Z,27.80
2017-08-07T12:49:49.298Z,28.50
2017-08-07T12:52:16.710Z,28.30
2017-08-07T12:54:44.136Z,28.60
2017-08-07T12:57:12.328Z,28.20
2017-08-07T12:59:39.737Z,28.20
2017-08-07T13:02:07.700Z,28.00
2017-08-07T13:04:36.039Z,28.30
2017-08-07T13:07:03.462Z,27.70
2017-08-07T13:09:31.642Z,28.50
2017-08-07T13:12:00.620Z,29.10
2017-08-07T13:14:28.263Z,29.10
2017-08-07T13:16:55.658Z,29.90
2017-08-07T13:19:24.091Z,29.50
2017-08-07T13:21:51.533Z,29.50
2017-08-07T13:24:18.929Z,30.10
2017-08-07T13:26:47.115Z,27.90
2017-08-07T13:29:15.294Z,27.50
2017-08-07T13:31:43.494Z,27.70
2017-08-07T13:34:10.901Z,27.70
2017-08-07T13:36:38.682Z,28.40
2017-08-07T13:39:06.866Z,28.30
2017-08-07T13:41:36.002Z,29.10
2017-08-07T13:44:03.435Z,29.10
2017-08-07T13:46:30.843Z,30.10
2017-08-07T13:48:58.681Z,29.70
2017-08-07T13:51:26.090Z,29.40
2017-08-07T13:53:53.503Z,29.80
2017-08-07T13:56:20.927Z,29.80
2017-08-07T13:58:48.347Z,28.90
2017-08-07T14:01:15.759Z,28.70
2017-08-07T14:03:43.176Z,29.20
2017-08-07T14:06:11.358Z,28.50
2017-08-07T14:08:38.773Z,28.50
2017-08-07T14:11:06.202Z,29.00
2017-08-07T14:13:33.610Z,28.50
2017-08-07T14:16:01.803Z,28.80
2017-08-07T14:18:29.978Z,28.80
2017-08-07T14:20:57.446Z,28.80
2017-08-07T14:23:25.274Z,29.10
2017-08-07T14:25:54.998Z,28.80
2017-08-07T14:28:23.173Z,28.80
2017-08-07T14:30:51.371Z,29.50
2017-08-07T14:33:18.767Z,29.50
2017-08-07T14:35:46.750Z,29.60
2017-08-07T14:38:14.167Z,29.10
2017-08-07T14:40:41.590Z,28.20
2017-08-07T14:43:09.524Z,28.20
2017-08-07T14:45:37.679Z,28.20
2017-08-07T14:48:05.093Z,28.00
2017-08-07T14:50:33.388Z,28.20
2017-08-07T14:53:00.803Z,28.60
2017-08-07T14:58:20.894Z,28.80
2017-08-07T15:00:48.308Z,28.30
2017-08-07T15:03:15.726Z,27.90
2017-08-07T15:05:43.915Z,29.00
2017-08-07T15:08:11.595Z,29.00
2017-08-07T15:10:39.017Z,28.20
2017-08-07T15:13:07.199Z,27.90
2017-08-07T15:15:35.383Z,27.70
2017-08-07T15:18:02.802Z,27.60
2017-08-07T15:29:25.308Z,27.20
2017-08-07T15:31:52.730Z,27.20
2017-08-07T15:34:20.155Z,27.60
2017-08-07T15:36:47.570Z,27.80
2017-08-07T15:39:14.994Z,28.20
2017-08-07T15:41:43.247Z,28.90
2017-08-07T15:44:10.663Z,29.70
2017-08-07T15:46:38.078Z,30.00
2017-08-07T15:49:05.503Z,29.00
2017-08-07T15:51:32.919Z,28.50
2017-08-07T15:54:00.347Z,28.20
2017-08-07T15:56:27.763Z,27.80
2017-08-07T15:58:55.953Z,27.40
2017-08-07T16:01:23.370Z,27.30
2017-08-07T16:03:50.795Z,27.60
2017-08-07T16:06:18.198Z,27.50
2017-08-07T16:08:46.387Z,27.30
2017-08-07T16:11:13.802Z,27.30
2017-08-07T16:13:41.222Z,27.10
2017-08-07T16:16:08.642Z,27.30
2017-08-07T16:18:36.827Z,27.80
2017-08-07T16:21:05.006Z,26.80
2017-08-07T16:23:32.426Z,26.70
2017-08-07T16:25:59.842Z,26.50
2017-08-07T16:28:27.254Z,26.70
2017-08-07T16:30:55.446Z,26.40
2017-08-07T16:33:22.861Z,26.30
2017-08-07T16:35:50.914Z,26.30
2017-08-07T16:38:18.338Z,25.70
2017-08-07T16:40:45.762Z,25.00
2017-08-07T16:43:14.589Z,24.70
2017-08-07T16:45:42.004Z,24.70
2017-08-07T16:48:09.427Z,24.60
2017-08-07T16:50:36.874Z,24.40
2017-08-07T16:53:04.287Z,24.30
2017-08-07T16:55:33.378Z,23.70
2017-08-07T16:58:01.655Z,23.50
2017-08-07T17:00:29.070Z,23.50
2017-08-07T17:02:56.491Z,23.50
2017-08-07T17:05:23.900Z,23.40
2017-08-07T17:07:51.328Z,23.40
2017-08-07T17:10:18.737Z,23.40
2017-08-07T17:12:46.914Z,23.20
2017-08-07T17:15:15.099Z,23.00
2017-08-07T17:17:43.279Z,22.90
2017-08-07T17:20:10.690Z,22.80
2017-08-07T17:22:38.115Z,22.80
2017-08-07T17:25:05.799Z,22.70
2017-08-07T17:27:33.207Z,22.60
2017-08-07T17:30:00.622Z,22.60
2017-08-07T17:32:28.044Z,22.70
2017-08-07T17:34:55.454Z,22.70
2017-08-07T17:37:23.640Z,22.50
2017-08-07T17:39:51.742Z,22.50
2017-08-07T17:42:19.172Z,22.50
2017-08-07T17:44:46.583Z,22.50
2017-08-07T17:47:13.999Z,22.40
2017-08-07T17:49:41.410Z,22.30
2017-08-07T17:52:08.827Z,22.20
2017-08-07T17:54:36.242Z,22.10
2017-08-07T17:57:04.425Z,21.90
2017-08-07T17:59:31.843Z,21.90
2017-08-07T18:01:59.272Z,21.80
2017-08-07T18:04:26.687Z,21.70
2017-08-07T18:06:54.858Z,21.50
2017-08-07T18:09:23.050Z,21.30
2017-08-07T18:11:50.454Z,21.30
2017-08-07T18:14:17.885Z,21.20
2017-08-07T18:16:45.299Z,21.00
2017-08-07T18:19:15.027Z,20.70
2017-08-07T18:21:42.438Z,20.70
2017-08-07T18:24:09.862Z,20.50
2017-08-07T18:26:38.446Z,20.30
2017-08-07T18:29:05.853Z,20.20
2017-08-07T18:31:33.283Z,20.10
2017-08-07T18:34:00.696Z,20.10
2017-08-07T18:36:28.122Z,20.00
2017-08-07T18:38:56.299Z,19.90
2017-08-07T18:41:24.486Z,19.90
2017-08-07T18:43:51.894Z,19.80
2017-08-07T18:46:19.305Z,19.80
2017-08-07T18:48:46.735Z,19.70
2017-08-07T18:51:14.149Z,19.70
2017-08-07T18:53:41.574Z,19.60
2017-08-07T18:56:08.990Z,19.50
2017-08-07T18:58:36.405Z,19.30
2017-08-07T19:01:03.822Z,19.30
2017-08-07T19:03:32.631Z,19.10
2017-08-07T19:06:00.802Z,19.00
2017-08-07T19:08:28.215Z,18.90
2017-08-07T19:10:55.626Z,18.90
2017-08-07T19:13:23.042Z,18.90
2017-08-07T19:15:50.463Z,18.80
2017-08-07T19:18:17.893Z,18.70
2017-08-07T19:20:45.371Z,18.70
2017-08-07T19:23:12.774Z,18.60
2017-08-07T19:25:40.954Z,18.50
2017-08-07T19:28:09.156Z,18.30
2017-08-07T19:30:37.710Z,18.30
2017-08-07T19:33:05.898Z,18.10
2017-08-07T19:35:33.314Z,18.10
2017-08-07T19:38:00.743Z,18.00
2017-08-07T19:40:28.166Z,18.00
2017-08-07T19:42:55.582Z,17.90
2017-08-07T19:45:22.999Z,17.90
2017-08-07T19:47:51.297Z,17.90
2017-08-07T19:50:18.714Z,17.80
2017-08-07T19:52:46.132Z,17.40
2017-08-07T19:55:13.551Z,17.20
2017-08-07T19:57:40.975Z,17.10
2017-08-07T20:00:08.390Z,17.00
2017-08-07T20:02:35.807Z,16.90
2017-08-07T20:05:03.217Z,16.80
2017-08-07T20:07:30.635Z,16.80
2017-08-07T20:09:58.055Z,16.70
2017-08-07T20:12:25.466Z,16.80
2017-08-07T20:14:52.888Z,16.90
2017-08-07T20:17:20.298Z,16.90
2017-08-07T20:19:47.729Z,16.90
2017-08-07T20:22:15.151Z,16.90
2017-08-07T20:24:42.562Z,17.00
2017-08-07T20:27:09.976Z,16.90
2017-08-07T20:29:37.392Z,16.80
2017-08-07T20:32:04.803Z,16.80
2017-08-07T20:34:33.327Z,16.70
2017-08-07T20:37:00.746Z,16.70
2017-08-07T20:39:28.158Z,16.70
2017-08-07T20:41:55.578Z,16.60
2017-08-07T20:44:22.999Z,16.60
2017-08-07T20:46:50.418Z,16.50
2017-08-07T20:49:17.834Z,16.40
2017-08-07T20:51:45.261Z,16.20
2017-08-07T20:54:12.679Z,16.20
2017-08-07T20:56:40.102Z,16.20
2017-08-07T20:59:07.522Z,16.10
2017-08-07T21:01:34.942Z,16.00
2017-08-07T21:04:02.360Z,15.90
2017-08-07T21:06:29.774Z,15.90
2017-08-07T21:08:57.203Z,15.80
2017-08-07T21:11:24.625Z,15.80
2017-08-07T21:13:52.806Z,15.80
2017-08-07T21:16:20.229Z,15.70
2017-08-07T21:18:47.646Z,15.70
2017-08-07T21:21:15.063Z,15.80
2017-08-07T21:23:42.490Z,15.80
2017-08-07T21:26:09.902Z,15.90
2017-08-07T21:28:38.231Z,15.80
2017-08-07T21:31:06.334Z,15.80
2017-08-07T21:33:33.751Z,15.70
2017-08-07T21:36:01.162Z,15.70
2017-08-07T21:38:31.147Z,15.60
2017-08-07T21:40:58.683Z,15.50
2017-08-07T21:43:26.111Z,15.30
2017-08-07T21:45:54.288Z,15.20
2017-08-07T21:48:21.696Z,15.10
2017-08-07T21:50:49.112Z,15.10
2017-08-07T21:53:16.522Z,15.20
2017-08-07T21:55:45.054Z,15.20
2017-08-07T21:58:12.710Z,15.10
2017-08-07T22:00:40.122Z,15.10
2017-08-07T22:03:07.530Z,15.10
2017-08-07T22:05:34.959Z,15.20
2017-08-07T22:08:02.369Z,15.20
2017-08-07T22:10:29.790Z,15.10
2017-08-07T22:12:57.200Z,15.10
2017-08-07T22:15:24.605Z,15.20
2017-08-07T22:17:52.042Z,15.20
2017-08-07T22:20:19.444Z,15.20
2017-08-07T22:22:46.867Z,15.00
2017-08-07T22:25:14.278Z,14.90
2017-08-07T22:27:41.699Z,14.80
2017-08-07T22:30:09.119Z,14.90
2017-08-07T22:32:37.343Z,15.00
2017-08-07T22:35:04.758Z,15.00
2017-08-07T22:37:32.174Z,15.00
2017-08-07T22:39:59.590Z,14.80
2017-08-07T22:42:27.533Z,14.80
2017-08-07T22:44:55.714Z,14.90
2017-08-07T22:47:23.134Z,14.90
2017-08-07T22:49:51.306Z,15.00
2017-08-07T22:52:18.717Z,14.90
2017-08-07T22:54:46.138Z,15.00
2017-08-07T22:57:13.553Z,15.00
2017-08-07T22:59:40.975Z,14.90
2017-08-07T23:02:10.340Z,14.90
2017-08-07T23:04:37.754Z,14.90
2017-08-07T23:07:05.587Z,14.90
2017-08-07T23:09:33.010Z,14.90
2017-08-07T23:12:00.424Z,15.00
2017-08-07T23:14:27.846Z,15.00
2017-08-07T23:16:55.259Z,15.10
2017-08-07T23:19:22.677Z,15.10
2017-08-07T23:21:50.859Z,15.10
2017-08-07T23:24:18.281Z,15.10
2017-08-07T23:26:45.701Z,14.90
2017-08-07T23:29:13.159Z,14.80
2017-08-07T23:31:41.239Z,14.80
2017-08-07T23:34:08.666Z,14.70
2017-08-07T23:36:36.079Z,14.80
2017-08-07T23:39:03.499Z,14.90
2017-08-07T23:41:30.911Z,14.80
2017-08-07T23:43:59.494Z,14.70
2017-08-07T23:46:26.902Z,14.70
2017-08-07T23:48:54.322Z,14.50
2017-08-07T23:51:21.738Z,14.50
2017-08-07T23:53:49.154Z,14.40
2017-08-07T23:56:16.572Z,14.30
2017-08-07T23:58:43.982Z,14.30
